sensor_id;sensor_type;location;lat;lon;timestamp;temperature;humidity
21508;DHT22;10915;54.352;9.074;2023-05-18T00:00:19;8.90;99.90
21508;DHT22;10915;54.352;9.074;2023-05-18T00:02:45;9.00;99.90
21508;DHT22;10915;54.352;9.074;2023-05-18T00:05:12;9.00;99.90
21508;DHT22;10915;54.352;9.074;2023-05-18T00:07:38;9.00;99.90
21508;DHT22;10915;54.352;9.074;2023-05-18T00:10:05;8.90;99.90
21508;DHT22;10915;54.352;9.074;2023-05-18T00:12:31;8.90;99.90
21508;DHT22;10915;54.352;9.074;2023-05-18T00:14:57;8.90;99.90
21508;DHT22;10915;54.352;9.074;2023-05-18T00:17:23;8.90;99.90
21508;DHT22;10915;54.352;9.074;2023-05-18T00:19:48;8.90;99.90
21508;DHT22;10915;54.352;9.074;2023-05-18T00:22:15;9.00;99.90
21508;DHT22;10915;54.352;9.074;2023-05-18T00:24:44;9.00;99.90
21508;DHT22;10915;54.352;9.074;2023-05-18T00:27:11;9.00;99.90
21508;DHT22;10915;54.352;9.074;2023-05-18T00:29:36;9.00;99.90
21508;DHT22;10915;54.352;9.074;2023-05-18T00:32:02;8.90;99.90
21508;DHT22;10915;54.352;9.074;2023-05-18T00:34:28;8.90;99.90
21508;DHT22;10915;54.352;9.074;2023-05-18T00:36:54;8.90;99.90
21508;DHT22;10915;54.352;9.074;2023-05-18T00:39:19;8.90;99.90
21508;DHT22;10915;54.352;9.074;2023-05-18T00:41:45;8.90;99.90
21508;DHT22;10915;54.352;9.074;2023-05-18T00:44:11;8.90;99.90
21508;DHT22;10915;54.352;9.074;2023-05-18T00:46:36;8.90;99.90
21508;DHT22;10915;54.352;9.074;2023-05-18T00:49:02;8.90;99.90
21508;DHT22;10915;54.352;9.074;2023-05-18T00:51:28;8.90;99.90
21508;DHT22;10915;54.352;9.074;2023-05-18T00:53:56;8.90;99.90
21508;DHT22;10915;54.352;9.074;2023-05-18T00:56:23;8.90;99.90
21508;DHT22;10915;54.352;9.074;2023-05-18T00:58:54;8.90;99.90
21508;DHT22;10915;54.352;9.074;2023-05-18T01:01:32;8.90;99.90
21508;DHT22;10915;54.352;9.074;2023-05-18T01:03:59;9.00;99.90
21508;DHT22;10915;54.352;9.074;2023-05-18T01:06:28;8.90;99.90
21508;DHT22;10915;54.352;9.074;2023-05-18T01:08:58;8.90;99.90
21508;DHT22;10915;54.352;9.074;2023-05-18T01:11:31;8.90;99.90
21508;DHT22;10915;54.352;9.074;2023-05-18T01:14:08;8.90;99.90
21508;DHT22;10915;54.352;9.074;2023-05-18T01:24:44;9.00;99.90
21508;DHT22;10915;54.352;9.074;2023-05-18T01:27:15;9.00;99.90
21508;DHT22;10915;54.352;9.074;2023-05-18T01:29:43;9.00;99.90
21508;DHT22;10915;54.352;9.074;2023-05-18T01:32:19;9.00;99.90
21508;DHT22;10915;54.352;9.074;2023-05-18T01:34:46;9.00;99.90
21508;DHT22;10915;54.352;9.074;2023-05-18T01:37:12;9.00;99.90
21508;DHT22;10915;54.352;9.074;2023-05-18T01:39:38;9.00;99.90
21508;DHT22;10915;54.352;9.074;2023-05-18T01:42:11;9.00;99.90
21508;DHT22;10915;54.352;9.074;2023-05-18T01:44:42;9.00;99.90
21508;DHT22;10915;54.352;9.074;2023-05-18T01:47:14;9.00;99.90
21508;DHT22;10915;54.352;9.074;2023-05-18T01:49:48;9.00;99.90
21508;DHT22;10915;54.352;9.074;2023-05-18T01:52:19;9.00;99.90
21508;DHT22;10915;54.352;9.074;2023-05-18T01:54:49;9.00;99.90
21508;DHT22;10915;54.352;9.074;2023-05-18T01:57:17;9.00;99.90
21508;DHT22;10915;54.352;9.074;2023-05-18T01:59:43;9.00;99.90
21508;DHT22;10915;54.352;9.074;2023-05-18T02:02:10;9.00;99.90
21508;DHT22;10915;54.352;9.074;2023-05-18T02:04:36;9.00;99.90
21508;DHT22;10915;54.352;9.074;2023-05-18T02:07:01;9.10;99.90
21508;DHT22;10915;54.352;9.074;2023-05-18T02:09:27;9.00;99.90
21508;DHT22;10915;54.352;9.074;2023-05-18T02:11:53;9.00;99.90
21508;DHT22;10915;54.352;9.074;2023-05-18T02:14:18;9.00;99.90
21508;DHT22;10915;54.352;9.074;2023-05-18T02:16:44;9.00;99.90
21508;DHT22;10915;54.352;9.074;2023-05-18T02:19:12;9.00;99.90
21508;DHT22;10915;54.352;9.074;2023-05-18T02:21:38;9.00;99.90
21508;DHT22;10915;54.352;9.074;2023-05-18T02:24:06;9.00;99.90
21508;DHT22;10915;54.352;9.074;2023-05-18T02:26:31;9.10;99.90
21508;DHT22;10915;54.352;9.074;2023-05-18T02:28:57;8.80;99.90
21508;DHT22;10915;54.352;9.074;2023-05-18T02:31:23;8.80;99.90
21508;DHT22;10915;54.352;9.074;2023-05-18T02:33:48;8.80;99.90
21508;DHT22;10915;54.352;9.074;2023-05-18T02:36:14;8.70;99.90
21508;DHT22;10915;54.352;9.074;2023-05-18T02:38:43;8.70;99.90
21508;DHT22;10915;54.352;9.074;2023-05-18T02:41:09;8.50;99.90
21508;DHT22;10915;54.352;9.074;2023-05-18T02:43:35;8.40;99.90
21508;DHT22;10915;54.352;9.074;2023-05-18T02:46:02;8.40;99.90
21508;DHT22;10915;54.352;9.074;2023-05-18T02:48:28;8.30;99.90
21508;DHT22;10915;54.352;9.074;2023-05-18T02:50:53;8.40;99.90
21508;DHT22;10915;54.352;9.074;2023-05-18T02:53:20;8.40;99.90
21508;DHT22;10915;54.352;9.074;2023-05-18T02:55:46;8.50;99.90
21508;DHT22;10915;54.352;9.074;2023-05-18T02:58:13;8.60;99.90
21508;DHT22;10915;54.352;9.074;2023-05-18T03:00:39;8.70;99.90
21508;DHT22;10915;54.352;9.074;2023-05-18T03:03:06;8.70;99.90
21508;DHT22;10915;54.352;9.074;2023-05-18T03:05:35;8.70;99.90
21508;DHT22;10915;54.352;9.074;2023-05-18T03:08:01;8.80;99.90
21508;DHT22;10915;54.352;9.074;2023-05-18T03:10:27;8.80;99.90
21508;DHT22;10915;54.352;9.074;2023-05-18T03:12:53;8.70;99.90
21508;DHT22;10915;54.352;9.074;2023-05-18T03:15:18;8.70;99.90
21508;DHT22;10915;54.352;9.074;2023-05-18T03:17:45;8.60;99.90
21508;DHT22;10915;54.352;9.074;2023-05-18T03:20:11;8.60;99.90
21508;DHT22;10915;54.352;9.074;2023-05-18T03:22:38;8.70;99.90
21508;DHT22;10915;54.352;9.074;2023-05-18T03:25:05;8.80;99.90
21508;DHT22;10915;54.352;9.074;2023-05-18T03:27:30;8.80;99.90
21508;DHT22;10915;54.352;9.074;2023-05-18T03:29:56;8.80;99.90
21508;DHT22;10915;54.352;9.074;2023-05-18T03:32:22;8.80;99.90
21508;DHT22;10915;54.352;9.074;2023-05-18T03:34:49;8.80;99.90
21508;DHT22;10915;54.352;9.074;2023-05-18T03:37:16;8.80;99.90
21508;DHT22;10915;54.352;9.074;2023-05-18T03:39:42;8.90;99.90
21508;DHT22;10915;54.352;9.074;2023-05-18T03:42:07;8.90;99.90
21508;DHT22;10915;54.352;9.074;2023-05-18T03:44:33;9.00;99.90
21508;DHT22;10915;54.352;9.074;2023-05-18T03:46:59;9.00;99.90
21508;DHT22;10915;54.352;9.074;2023-05-18T03:49:24;8.90;99.90
21508;DHT22;10915;54.352;9.074;2023-05-18T03:51:50;8.80;99.90
21508;DHT22;10915;54.352;9.074;2023-05-18T03:54:18;8.90;99.90
21508;DHT22;10915;54.352;9.074;2023-05-18T03:56:45;9.00;99.90
21508;DHT22;10915;54.352;9.074;2023-05-18T03:59:11;9.00;99.90
21508;DHT22;10915;54.352;9.074;2023-05-18T04:01:37;9.00;99.90
21508;DHT22;10915;54.352;9.074;2023-05-18T04:04:06;9.10;99.90
21508;DHT22;10915;54.352;9.074;2023-05-18T04:06:32;9.20;99.90
21508;DHT22;10915;54.352;9.074;2023-05-18T04:09:00;9.20;99.90
21508;DHT22;10915;54.352;9.074;2023-05-18T04:11:29;9.30;99.90
21508;DHT22;10915;54.352;9.074;2023-05-18T04:13:56;9.30;99.90
21508;DHT22;10915;54.352;9.074;2023-05-18T04:16:23;9.30;99.90
21508;DHT22;10915;54.352;9.074;2023-05-18T04:18:48;9.40;99.90
21508;DHT22;10915;54.352;9.074;2023-05-18T04:21:14;9.40;99.90
21508;DHT22;10915;54.352;9.074;2023-05-18T04:23:40;9.40;99.90
21508;DHT22;10915;54.352;9.074;2023-05-18T04:26:06;9.40;99.90
21508;DHT22;10915;54.352;9.074;2023-05-18T04:28:33;9.50;99.90
21508;DHT22;10915;54.352;9.074;2023-05-18T04:30:59;9.60;99.90
21508;DHT22;10915;54.352;9.074;2023-05-18T04:33:30;9.60;99.90
21508;DHT22;10915;54.352;9.074;2023-05-18T04:35:55;9.60;99.90
21508;DHT22;10915;54.352;9.074;2023-05-18T04:38:24;9.70;99.90
21508;DHT22;10915;54.352;9.074;2023-05-18T04:40:50;9.80;99.90
21508;DHT22;10915;54.352;9.074;2023-05-18T04:43:16;9.80;99.90
21508;DHT22;10915;54.352;9.074;2023-05-18T04:45:43;9.90;99.90
21508;DHT22;10915;54.352;9.074;2023-05-18T04:48:15;10.00;99.90
21508;DHT22;10915;54.352;9.074;2023-05-18T04:50:44;10.00;99.90
21508;DHT22;10915;54.352;9.074;2023-05-18T04:53:10;10.10;99.90
21508;DHT22;10915;54.352;9.074;2023-05-18T04:55:37;10.20;99.90
21508;DHT22;10915;54.352;9.074;2023-05-18T04:58:02;10.30;99.90
21508;DHT22;10915;54.352;9.074;2023-05-18T05:00:29;10.40;99.90
21508;DHT22;10915;54.352;9.074;2023-05-18T05:02:56;10.20;99.90
21508;DHT22;10915;54.352;9.074;2023-05-18T05:05:22;10.20;99.90
21508;DHT22;10915;54.352;9.074;2023-05-18T05:07:52;10.20;99.90
21508;DHT22;10915;54.352;9.074;2023-05-18T05:10:18;10.20;99.90
21508;DHT22;10915;54.352;9.074;2023-05-18T05:12:45;10.30;99.90
21508;DHT22;10915;54.352;9.074;2023-05-18T05:15:10;10.30;99.90
21508;DHT22;10915;54.352;9.074;2023-05-18T05:17:36;10.30;99.90
21508;DHT22;10915;54.352;9.074;2023-05-18T05:20:02;10.40;99.90
21508;DHT22;10915;54.352;9.074;2023-05-18T05:22:28;10.50;99.90
21508;DHT22;10915;54.352;9.074;2023-05-18T05:24:54;10.60;99.90
21508;DHT22;10915;54.352;9.074;2023-05-18T05:27:19;10.70;99.90
21508;DHT22;10915;54.352;9.074;2023-05-18T05:29:47;10.80;99.90
21508;DHT22;10915;54.352;9.074;2023-05-18T05:32:12;10.90;99.90
21508;DHT22;10915;54.352;9.074;2023-05-18T05:34:39;11.00;99.90
21508;DHT22;10915;54.352;9.074;2023-05-18T05:37:05;11.10;99.90
21508;DHT22;10915;54.352;9.074;2023-05-18T05:39:30;11.20;99.90
21508;DHT22;10915;54.352;9.074;2023-05-18T05:41:56;11.10;99.90
21508;DHT22;10915;54.352;9.074;2023-05-18T05:44:22;11.20;99.90
21508;DHT22;10915;54.352;9.074;2023-05-18T05:46:48;11.20;99.90
21508;DHT22;10915;54.352;9.074;2023-05-18T05:49:14;11.30;99.90
21508;DHT22;10915;54.352;9.074;2023-05-18T05:51:40;11.50;99.90
21508;DHT22;10915;54.352;9.074;2023-05-18T05:54:05;11.50;99.90
21508;DHT22;10915;54.352;9.074;2023-05-18T05:56:31;11.40;99.90
21508;DHT22;10915;54.352;9.074;2023-05-18T05:58:56;11.30;99.90
21508;DHT22;10915;54.352;9.074;2023-05-18T06:01:22;10.60;99.90
21508;DHT22;10915;54.352;9.074;2023-05-18T06:03:48;10.80;99.90
21508;DHT22;10915;54.352;9.074;2023-05-18T06:06:13;11.20;99.90
21508;DHT22;10915;54.352;9.074;2023-05-18T06:08:39;11.50;99.90
21508;DHT22;10915;54.352;9.074;2023-05-18T06:11:05;11.30;99.90
21508;DHT22;10915;54.352;9.074;2023-05-18T06:13:31;10.90;99.90
21508;DHT22;10915;54.352;9.074;2023-05-18T06:15:57;10.70;99.90
21508;DHT22;10915;54.352;9.074;2023-05-18T06:18:23;10.90;99.90
21508;DHT22;10915;54.352;9.074;2023-05-18T06:20:49;10.90;99.90
21508;DHT22;10915;54.352;9.074;2023-05-18T06:23:15;10.80;99.90
21508;DHT22;10915;54.352;9.074;2023-05-18T06:25:47;11.20;99.90
21508;DHT22;10915;54.352;9.074;2023-05-18T06:28:13;11.60;99.90
21508;DHT22;10915;54.352;9.074;2023-05-18T06:30:39;11.90;99.90
21508;DHT22;10915;54.352;9.074;2023-05-18T06:33:05;11.90;99.90
21508;DHT22;10915;54.352;9.074;2023-05-18T06:35:32;11.70;99.90
21508;DHT22;10915;54.352;9.074;2023-05-18T06:37:58;11.80;99.90
21508;DHT22;10915;54.352;9.074;2023-05-18T06:40:24;12.10;99.90
21508;DHT22;10915;54.352;9.074;2023-05-18T06:42:49;11.90;99.90
21508;DHT22;10915;54.352;9.074;2023-05-18T06:45:15;12.20;99.90
21508;DHT22;10915;54.352;9.074;2023-05-18T06:47:41;12.60;99.90
21508;DHT22;10915;54.352;9.074;2023-05-18T06:50:08;13.10;99.90
21508;DHT22;10915;54.352;9.074;2023-05-18T06:52:34;12.60;99.90
21508;DHT22;10915;54.352;9.074;2023-05-18T06:54:59;12.20;99.90
21508;DHT22;10915;54.352;9.074;2023-05-18T06:57:28;12.40;99.90
21508;DHT22;10915;54.352;9.074;2023-05-18T06:59:54;12.70;99.90
21508;DHT22;10915;54.352;9.074;2023-05-18T07:02:20;13.00;99.90
21508;DHT22;10915;54.352;9.074;2023-05-18T07:04:47;13.20;99.90
21508;DHT22;10915;54.352;9.074;2023-05-18T07:07:13;13.30;99.90
21508;DHT22;10915;54.352;9.074;2023-05-18T07:09:39;13.40;99.90
21508;DHT22;10915;54.352;9.074;2023-05-18T07:12:10;13.60;99.90
21508;DHT22;10915;54.352;9.074;2023-05-18T07:14:36;13.70;99.90
21508;DHT22;10915;54.352;9.074;2023-05-18T07:17:03;13.80;99.90
21508;DHT22;10915;54.352;9.074;2023-05-18T07:19:28;13.90;99.90
21508;DHT22;10915;54.352;9.074;2023-05-18T07:21:54;14.00;99.90
21508;DHT22;10915;54.352;9.074;2023-05-18T07:24:21;13.30;99.90
21508;DHT22;10915;54.352;9.074;2023-05-18T07:26:47;13.20;99.90
21508;DHT22;10915;54.352;9.074;2023-05-18T07:29:12;12.80;99.90
21508;DHT22;10915;54.352;9.074;2023-05-18T07:31:38;12.90;99.90
21508;DHT22;10915;54.352;9.074;2023-05-18T07:34:05;12.90;99.90
21508;DHT22;10915;54.352;9.074;2023-05-18T07:36:31;13.10;99.90
21508;DHT22;10915;54.352;9.074;2023-05-18T07:38:57;13.10;99.90
21508;DHT22;10915;54.352;9.074;2023-05-18T07:41:23;13.50;99.90
21508;DHT22;10915;54.352;9.074;2023-05-18T07:43:50;14.00;99.90
21508;DHT22;10915;54.352;9.074;2023-05-18T07:46:16;14.80;99.90
21508;DHT22;10915;54.352;9.074;2023-05-18T07:48:42;15.80;99.90
21508;DHT22;10915;54.352;9.074;2023-05-18T07:51:07;16.50;99.90
21508;DHT22;10915;54.352;9.074;2023-05-18T07:53:33;17.00;99.90
21508;DHT22;10915;54.352;9.074;2023-05-18T07:55:59;17.60;99.90
21508;DHT22;10915;54.352;9.074;2023-05-18T07:58:25;18.10;99.90
21508;DHT22;10915;54.352;9.074;2023-05-18T08:00:51;18.10;99.90
21508;DHT22;10915;54.352;9.074;2023-05-18T08:03:17;17.90;99.90
21508;DHT22;10915;54.352;9.074;2023-05-18T08:05:43;17.70;99.90
21508;DHT22;10915;54.352;9.074;2023-05-18T08:08:08;17.40;99.90
21508;DHT22;10915;54.352;9.074;2023-05-18T08:10:36;16.90;99.90
21508;DHT22;10915;54.352;9.074;2023-05-18T08:13:01;17.20;99.90
21508;DHT22;10915;54.352;9.074;2023-05-18T08:15:27;17.20;99.90
21508;DHT22;10915;54.352;9.074;2023-05-18T08:17:53;17.40;99.90
21508;DHT22;10915;54.352;9.074;2023-05-18T08:20:19;17.80;99.90
21508;DHT22;10915;54.352;9.074;2023-05-18T08:22:45;18.20;99.90
21508;DHT22;10915;54.352;9.074;2023-05-18T08:25:10;18.00;99.90
21508;DHT22;10915;54.352;9.074;2023-05-18T08:27:36;16.70;99.90
21508;DHT22;10915;54.352;9.074;2023-05-18T08:30:02;16.30;99.90
21508;DHT22;10915;54.352;9.074;2023-05-18T08:32:27;16.30;99.90
21508;DHT22;10915;54.352;9.074;2023-05-18T08:34:53;17.30;99.90
21508;DHT22;10915;54.352;9.074;2023-05-18T08:37:18;18.20;99.90
21508;DHT22;10915;54.352;9.074;2023-05-18T08:39:44;18.90;99.90
21508;DHT22;10915;54.352;9.074;2023-05-18T08:44:49;18.60;99.90
21508;DHT22;10915;54.352;9.074;2023-05-18T08:47:21;18.50;99.90
21508;DHT22;10915;54.352;9.074;2023-05-18T08:49:51;16.50;99.90
21508;DHT22;10915;54.352;9.074;2023-05-18T08:52:17;15.00;99.90
21508;DHT22;10915;54.352;9.074;2023-05-18T08:54:48;14.70;99.90
21508;DHT22;10915;54.352;9.074;2023-05-18T08:57:16;14.80;99.90
21508;DHT22;10915;54.352;9.074;2023-05-18T08:59:45;15.00;99.90
21508;DHT22;10915;54.352;9.074;2023-05-18T09:02:12;16.10;99.90
21508;DHT22;10915;54.352;9.074;2023-05-18T09:04:38;15.90;99.90
21508;DHT22;10915;54.352;9.074;2023-05-18T09:07:06;16.00;99.90
21508;DHT22;10915;54.352;9.074;2023-05-18T09:09:34;16.80;99.90
21508;DHT22;10915;54.352;9.074;2023-05-18T09:12:00;17.50;99.90
21508;DHT22;10915;54.352;9.074;2023-05-18T09:14:26;18.00;99.90
21508;DHT22;10915;54.352;9.074;2023-05-18T09:16:52;17.60;99.90
21508;DHT22;10915;54.352;9.074;2023-05-18T09:19:18;16.90;99.90
21508;DHT22;10915;54.352;9.074;2023-05-18T09:21:44;17.30;99.90
21508;DHT22;10915;54.352;9.074;2023-05-18T09:24:10;18.10;99.90
21508;DHT22;10915;54.352;9.074;2023-05-18T09:26:36;18.80;99.90
21508;DHT22;10915;54.352;9.074;2023-05-18T09:29:17;19.40;99.90
21508;DHT22;10915;54.352;9.074;2023-05-18T09:31:44;19.80;99.90
21508;DHT22;10915;54.352;9.074;2023-05-18T09:34:11;20.20;99.90
21508;DHT22;10915;54.352;9.074;2023-05-18T09:36:37;20.40;99.90
21508;DHT22;10915;54.352;9.074;2023-05-18T09:39:09;20.60;99.90
21508;DHT22;10915;54.352;9.074;2023-05-18T09:41:39;20.80;99.90
21508;DHT22;10915;54.352;9.074;2023-05-18T09:44:05;21.00;99.90
21508;DHT22;10915;54.352;9.074;2023-05-18T09:46:37;21.30;99.90
21508;DHT22;10915;54.352;9.074;2023-05-18T09:49:04;21.50;99.90
21508;DHT22;10915;54.352;9.074;2023-05-18T09:51:34;21.60;99.90
21508;DHT22;10915;54.352;9.074;2023-05-18T09:54:00;21.20;99.90
21508;DHT22;10915;54.352;9.074;2023-05-18T09:56:29;21.20;99.90
21508;DHT22;10915;54.352;9.074;2023-05-18T09:58:57;21.20;99.90
21508;DHT22;10915;54.352;9.074;2023-05-18T10:01:22;20.10;99.90
21508;DHT22;10915;54.352;9.074;2023-05-18T10:03:48;20.10;99.90
21508;DHT22;10915;54.352;9.074;2023-05-18T10:06:14;20.60;99.90
21508;DHT22;10915;54.352;9.074;2023-05-18T10:08:44;21.10;99.90
21508;DHT22;10915;54.352;9.074;2023-05-18T10:11:10;21.50;99.90
21508;DHT22;10915;54.352;9.074;2023-05-18T10:13:36;21.90;99.90
21508;DHT22;10915;54.352;9.074;2023-05-18T10:16:04;22.00;99.90
21508;DHT22;10915;54.352;9.074;2023-05-18T10:18:39;22.00;99.90
21508;DHT22;10915;54.352;9.074;2023-05-18T10:21:06;21.60;99.90
21508;DHT22;10915;54.352;9.074;2023-05-18T10:23:34;20.00;99.90
21508;DHT22;10915;54.352;9.074;2023-05-18T10:26:00;20.10;99.90
21508;DHT22;10915;54.352;9.074;2023-05-18T10:28:43;20.00;99.90
21508;DHT22;10915;54.352;9.074;2023-05-18T10:31:09;19.90;99.90
21508;DHT22;10915;54.352;9.074;2023-05-18T10:33:36;19.80;99.90
21508;DHT22;10915;54.352;9.074;2023-05-18T10:36:05;19.80;99.90
21508;DHT22;10915;54.352;9.074;2023-05-18T10:38:32;20.10;99.90
21508;DHT22;10915;54.352;9.074;2023-05-18T10:41:03;20.30;99.90
21508;DHT22;10915;54.352;9.074;2023-05-18T10:43:29;20.30;99.90
21508;DHT22;10915;54.352;9.074;2023-05-18T10:45:59;20.30;99.90
21508;DHT22;10915;54.352;9.074;2023-05-18T10:48:26;20.40;99.90
21508;DHT22;10915;54.352;9.074;2023-05-18T10:50:54;20.80;99.90
21508;DHT22;10915;54.352;9.074;2023-05-18T10:53:22;21.20;99.90
21508;DHT22;10915;54.352;9.074;2023-05-18T10:55:50;21.70;99.90
21508;DHT22;10915;54.352;9.074;2023-05-18T10:58:20;22.20;99.90
21508;DHT22;10915;54.352;9.074;2023-05-18T11:00:58;22.40;99.90
21508;DHT22;10915;54.352;9.074;2023-05-18T11:03:25;22.50;99.90
21508;DHT22;10915;54.352;9.074;2023-05-18T11:06:11;22.60;99.90
21508;DHT22;10915;54.352;9.074;2023-05-18T11:08:46;22.50;99.90
21508;DHT22;10915;54.352;9.074;2023-05-18T11:11:12;22.60;99.90
21508;DHT22;10915;54.352;9.074;2023-05-18T11:13:43;22.50;99.90
21508;DHT22;10915;54.352;9.074;2023-05-18T11:16:10;22.30;99.90
21508;DHT22;10915;54.352;9.074;2023-05-18T11:26:31;21.50;99.90
21508;DHT22;10915;54.352;9.074;2023-05-18T11:28:57;21.40;99.90
21508;DHT22;10915;54.352;9.074;2023-05-18T11:31:42;21.30;99.90
21508;DHT22;10915;54.352;9.074;2023-05-18T11:34:40;21.50;99.90
21508;DHT22;10915;54.352;9.074;2023-05-18T11:37:16;21.70;99.90
21508;DHT22;10915;54.352;9.074;2023-05-18T11:39:53;21.80;99.90
21508;DHT22;10915;54.352;9.074;2023-05-18T11:42:19;21.60;99.90
21508;DHT22;10915;54.352;9.074;2023-05-18T11:44:55;21.30;99.90
21508;DHT22;10915;54.352;9.074;2023-05-18T11:47:28;21.30;99.90
21508;DHT22;10915;54.352;9.074;2023-05-18T11:49:56;21.30;99.90
21508;DHT22;10915;54.352;9.074;2023-05-18T11:52:23;20.60;99.90
21508;DHT22;10915;54.352;9.074;2023-05-18T11:54:56;20.70;99.90
21508;DHT22;10915;54.352;9.074;2023-05-18T11:59:58;20.40;99.90
21508;DHT22;10915;54.352;9.074;2023-05-18T12:02:34;20.40;99.90
21508;DHT22;10915;54.352;9.074;2023-05-18T12:05:00;20.50;99.90
21508;DHT22;10915;54.352;9.074;2023-05-18T12:07:29;20.70;99.90
21508;DHT22;10915;54.352;9.074;2023-05-18T12:10:00;21.00;99.90
21508;DHT22;10915;54.352;9.074;2023-05-18T12:12:27;21.10;99.90
21508;DHT22;10915;54.352;9.074;2023-05-18T12:14:55;21.20;99.90
21508;DHT22;10915;54.352;9.074;2023-05-18T12:17:21;21.30;99.90
21508;DHT22;10915;54.352;9.074;2023-05-18T12:20:00;21.60;99.90
21508;DHT22;10915;54.352;9.074;2023-05-18T12:22:31;21.70;99.90
21508;DHT22;10915;54.352;9.074;2023-05-18T12:24:57;21.80;99.90
21508;DHT22;10915;54.352;9.074;2023-05-18T12:27:22;21.60;99.90
21508;DHT22;10915;54.352;9.074;2023-05-18T12:29:50;20.90;99.90
21508;DHT22;10915;54.352;9.074;2023-05-18T12:32:18;21.10;99.90
21508;DHT22;10915;54.352;9.074;2023-05-18T12:34:43;21.00;99.90
21508;DHT22;10915;54.352;9.074;2023-05-18T12:37:09;20.60;99.90
21508;DHT22;10915;54.352;9.074;2023-05-18T12:39:39;20.60;99.90
21508;DHT22;10915;54.352;9.074;2023-05-18T12:42:11;20.80;99.90
21508;DHT22;10915;54.352;9.074;2023-05-18T12:44:37;21.00;99.90
21508;DHT22;10915;54.352;9.074;2023-05-18T12:47:04;21.00;99.90
21508;DHT22;10915;54.352;9.074;2023-05-18T12:49:38;20.80;99.90
21508;DHT22;10915;54.352;9.074;2023-05-18T12:52:11;19.80;99.90
21508;DHT22;10915;54.352;9.074;2023-05-18T12:54:50;20.00;99.90
21508;DHT22;10915;54.352;9.074;2023-05-18T12:57:23;20.30;99.90
21508;DHT22;10915;54.352;9.074;2023-05-18T12:59:58;20.60;99.90
21508;DHT22;10915;54.352;9.074;2023-05-18T13:02:29;21.00;99.90
21508;DHT22;10915;54.352;9.074;2023-05-18T13:05:11;21.20;99.90
21508;DHT22;10915;54.352;9.074;2023-05-18T13:07:37;21.20;99.90
21508;DHT22;10915;54.352;9.074;2023-05-18T13:10:11;21.10;99.90
21508;DHT22;10915;54.352;9.074;2023-05-18T13:12:44;21.10;99.90
21508;DHT22;10915;54.352;9.074;2023-05-18T13:15:18;21.20;99.90
21508;DHT22;10915;54.352;9.074;2023-05-18T13:17:59;21.30;99.90
21508;DHT22;10915;54.352;9.074;2023-05-18T13:23:07;21.60;99.90
21508;DHT22;10915;54.352;9.074;2023-05-18T13:25:33;21.60;99.90
21508;DHT22;10915;54.352;9.074;2023-05-18T13:27:58;21.80;99.90
21508;DHT22;10915;54.352;9.074;2023-05-18T13:30:25;21.80;99.90
21508;DHT22;10915;54.352;9.074;2023-05-18T13:32:51;21.70;99.90
21508;DHT22;10915;54.352;9.074;2023-05-18T13:35:20;21.50;99.90
21508;DHT22;10915;54.352;9.074;2023-05-18T13:37:47;21.20;99.90
21508;DHT22;10915;54.352;9.074;2023-05-18T13:40:15;20.90;99.90
21508;DHT22;10915;54.352;9.074;2023-05-18T13:42:41;20.90;99.90
21508;DHT22;10915;54.352;9.074;2023-05-18T13:45:08;21.00;99.90
21508;DHT22;10915;54.352;9.074;2023-05-18T13:47:34;21.10;99.90
21508;DHT22;10915;54.352;9.074;2023-05-18T13:50:00;21.10;99.90
21508;DHT22;10915;54.352;9.074;2023-05-18T13:52:26;21.10;99.90
21508;DHT22;10915;54.352;9.074;2023-05-18T13:54:52;20.50;99.90
21508;DHT22;10915;54.352;9.074;2023-05-18T13:57:17;20.70;99.90
21508;DHT22;10915;54.352;9.074;2023-05-18T13:59:43;20.80;99.90
21508;DHT22;10915;54.352;9.074;2023-05-18T14:02:08;20.40;99.90
21508;DHT22;10915;54.352;9.074;2023-05-18T14:04:34;20.30;99.90
21508;DHT22;10915;54.352;9.074;2023-05-18T14:07:00;20.40;99.90
21508;DHT22;10915;54.352;9.074;2023-05-18T14:09:26;20.40;99.90
21508;DHT22;10915;54.352;9.074;2023-05-18T14:11:55;20.50;99.90
21508;DHT22;10915;54.352;9.074;2023-05-18T14:14:20;20.70;99.90
21508;DHT22;10915;54.352;9.074;2023-05-18T14:16:46;20.70;99.90
21508;DHT22;10915;54.352;9.074;2023-05-18T14:19:12;20.60;99.90
21508;DHT22;10915;54.352;9.074;2023-05-18T14:21:38;20.60;99.90
21508;DHT22;10915;54.352;9.074;2023-05-18T14:24:04;20.70;99.90
21508;DHT22;10915;54.352;9.074;2023-05-18T14:26:32;20.70;99.90
21508;DHT22;10915;54.352;9.074;2023-05-18T14:28:58;20.70;99.90
21508;DHT22;10915;54.352;9.074;2023-05-18T14:31:24;20.10;99.90
21508;DHT22;10915;54.352;9.074;2023-05-18T14:33:49;19.20;99.90
21508;DHT22;10915;54.352;9.074;2023-05-18T14:36:15;19.30;99.90
21508;DHT22;10915;54.352;9.074;2023-05-18T14:38:41;19.40;99.90
21508;DHT22;10915;54.352;9.074;2023-05-18T14:41:08;19.70;99.90
21508;DHT22;10915;54.352;9.074;2023-05-18T14:43:33;19.10;99.90
21508;DHT22;10915;54.352;9.074;2023-05-18T14:45:59;19.30;99.90
21508;DHT22;10915;54.352;9.074;2023-05-18T14:48:25;19.40;99.90
21508;DHT22;10915;54.352;9.074;2023-05-18T14:50:50;19.20;99.90
21508;DHT22;10915;54.352;9.074;2023-05-18T14:53:16;19.30;99.90
21508;DHT22;10915;54.352;9.074;2023-05-18T14:55:44;19.00;99.90
21508;DHT22;10915;54.352;9.074;2023-05-18T14:58:09;18.70;99.90
21508;DHT22;10915;54.352;9.074;2023-05-18T15:00:39;18.20;99.90
21508;DHT22;10915;54.352;9.074;2023-05-18T15:03:05;18.40;99.90
21508;DHT22;10915;54.352;9.074;2023-05-18T15:05:32;18.50;99.90
21508;DHT22;10915;54.352;9.074;2023-05-18T15:07:57;18.60;99.90
21508;DHT22;10915;54.352;9.074;2023-05-18T15:10:23;18.80;99.90
21508;DHT22;10915;54.352;9.074;2023-05-18T15:12:50;19.00;99.90
21508;DHT22;10915;54.352;9.074;2023-05-18T15:15:16;18.90;99.90
21508;DHT22;10915;54.352;9.074;2023-05-18T15:17:42;19.10;99.90
21508;DHT22;10915;54.352;9.074;2023-05-18T15:20:08;19.00;99.90
21508;DHT22;10915;54.352;9.074;2023-05-18T15:22:34;19.20;99.90
21508;DHT22;10915;54.352;9.074;2023-05-18T15:25:04;19.10;99.90
21508;DHT22;10915;54.352;9.074;2023-05-18T15:27:32;19.10;99.90
21508;DHT22;10915;54.352;9.074;2023-05-18T15:29:57;18.90;99.90
21508;DHT22;10915;54.352;9.074;2023-05-18T15:32:23;18.80;99.90
21508;DHT22;10915;54.352;9.074;2023-05-18T15:34:49;18.80;99.90
21508;DHT22;10915;54.352;9.074;2023-05-18T15:37:15;18.90;99.90
21508;DHT22;10915;54.352;9.074;2023-05-18T15:39:41;18.80;99.90
21508;DHT22;10915;54.352;9.074;2023-05-18T15:42:07;18.90;99.90
21508;DHT22;10915;54.352;9.074;2023-05-18T15:44:32;18.90;99.90
21508;DHT22;10915;54.352;9.074;2023-05-18T15:46:58;19.10;99.90
21508;DHT22;10915;54.352;9.074;2023-05-18T15:49:25;19.10;99.90
21508;DHT22;10915;54.352;9.074;2023-05-18T15:51:50;19.10;99.90
21508;DHT22;10915;54.352;9.074;2023-05-18T15:54:16;19.00;99.90
21508;DHT22;10915;54.352;9.074;2023-05-18T15:56:42;18.90;99.90
21508;DHT22;10915;54.352;9.074;2023-05-18T15:59:08;19.00;99.90